Time;durP1;ratioP1;P1;durP2;ratioP2;P2;SDS_P1;SDS_P2;PMS_P1;PMS_P2;Temp;Humidity;BMP_temperature;BMP_pressure;BME280_temperature;BME280_humidity;BME280_pressure;Samples;Min_cycle;Max_cycle;Signal;HPM_P1;HPM_P2
2022/03/20 00:00:22;;;;;;;13.00;10.02;;;;;;;15.37;30.27;94676.31;4914813;29;20052;-91
2022/03/20 00:02:48;;;;;;;14.35;10.70;;;;;;;15.40;30.32;94674.63;4899889;29;20036;-92
2022/03/20 00:05:14;;;;;;;15.43;11.68;;;;;;;15.38;30.50;94671.59;4915084;29;20082;-92
2022/03/20 00:07:41;;;;;;;13.00;9.35;;;;;;;15.37;30.41;94679.03;4919292;29;20503;-92
2022/03/20 00:10:07;;;;;;;16.20;10.38;;;;;;;15.35;30.15;94654.25;4919140;29;20096;-93
2022/03/20 00:12:32;;;;;;;13.43;9.95;;;;;;;15.37;30.32;94670.13;4919116;29;20042;-92
2022/03/20 00:14:58;;;;;;;13.35;9.95;;;;;;;15.36;30.18;94663.16;4919366;29;20062;-91
2022/03/20 00:17:23;;;;;;;13.77;10.63;;;;;;;15.37;30.24;94662.69;4918439;29;20036;-93
2022/03/20 00:19:50;;;;;;;12.18;9.40;;;;;;;15.37;30.57;94659.97;4918603;29;20043;-91
2022/03/20 00:22:15;;;;;;;13.85;10.35;;;;;;;15.37;30.19;94670.13;4918054;29;20491;-91
2022/03/20 00:24:41;;;;;;;13.63;10.15;;;;;;;15.36;30.29;94655.75;4918792;29;20051;-92
2022/03/20 00:27:08;;;;;;;12.38;9.52;;;;;;;15.35;30.04;94658.94;4918277;29;20212;-91
2022/03/20 00:29:33;;;;;;;13.55;10.00;;;;;;;15.35;30.01;94654.25;4919543;29;20487;-92
2022/03/20 00:31:58;;;;;;;12.82;9.50;;;;;;;15.35;30.27;94654.25;4918273;29;20054;-91
2022/03/20 00:34:24;;;;;;;12.43;10.57;;;;;;;15.36;30.52;94663.94;4917865;29;20040;-92
2022/03/20 00:36:49;;;;;;;13.88;10.43;;;;;;;15.36;30.38;94665.88;4918824;29;20491;-92
2022/03/20 00:39:15;;;;;;;14.55;10.38;;;;;;;15.36;29.98;94657.72;4915690;29;20048;-91
2022/03/20 00:41:40;;;;;;;13.88;10.07;;;;;;;15.36;30.04;94661.19;4902895;29;20047;-91
2022/03/20 00:44:06;;;;;;;12.63;9.77;;;;;;;15.36;30.00;94652.28;4903666;29;20044;-92
2022/03/20 00:46:31;;;;;;;14.73;9.85;;;;;;;15.36;29.98;94655.75;4915127;29;20326;-92
2022/03/20 00:48:56;;;;;;;12.70;9.60;;;;;;;15.35;30.55;94656.22;4918177;29;20048;-92
2022/03/20 00:51:22;;;;;;;12.70;9.88;;;;;;;15.37;30.11;94645.59;4917735;28;20392;-92
2022/03/20 00:53:47;;;;;;;14.40;11.25;;;;;;;15.34;30.28;94647.28;4910707;29;20459;-91
2022/03/20 00:56:14;;;;;;;12.88;10.27;;;;;;;15.34;30.29;94652.72;4917561;29;20491;-91
2022/03/20 00:58:39;;;;;;;15.20;10.70;;;;;;;15.36;30.22;94652.28;4918609;29;20095;-91
2022/03/20 01:01:06;;;;;;;12.70;9.38;;;;;;;15.35;30.27;94648.78;4916945;29;20484;-92
2022/03/20 01:03:31;;;;;;;14.05;10.18;;;;;;;15.35;30.14;94639.88;4914516;29;20039;-92
2022/03/20 01:05:57;;;;;;;12.80;9.43;;;;;;;15.34;30.42;94647.28;4899279;29;20040;-92
2022/03/20 01:08:22;;;;;;;14.60;9.50;;;;;;;15.33;30.20;94636.84;4882869;29;20099;-92
2022/03/20 01:10:48;;;;;;;13.15;10.27;;;;;;;15.33;30.25;94640.31;4899308;29;20404;-91
2022/03/20 01:13:13;;;;;;;13.75;10.43;;;;;;;15.36;30.15;94657.72;4901434;29;20032;-92
2022/03/20 01:15:40;;;;;;;13.50;10.50;;;;;;;15.35;29.99;94648.03;4902378;29;20039;-91
2022/03/20 01:18:05;;;;;;;12.57;9.88;;;;;;;15.34;29.98;94647.28;4916071;29;20039;-91
2022/03/20 01:20:31;;;;;;;13.43;9.73;;;;;;;15.33;30.20;94626.69;4917454;29;20035;-92
2022/03/20 01:22:57;;;;;;;12.18;9.63;;;;;;;15.34;29.92;94630.94;4917518;29;20059;-90
2022/03/20 01:25:22;;;;;;;11.35;8.82;;;;;;;15.33;30.00;94629.41;4931860;29;20043;-93
2022/03/20 01:27:48;;;;;;;13.00;10.13;;;;;;;15.34;30.47;94641.84;4917481;29;20046;-92
2022/03/20 01:30:13;;;;;;;11.48;9.23;;;;;;;15.34;30.09;94627.44;4916439;29;20039;-91
2022/03/20 01:32:39;;;;;;;14.85;10.25;;;;;;;15.33;29.88;94623.97;4917260;29;20050;-92
2022/03/20 01:35:06;;;;;;;12.02;9.90;;;;;;;15.33;30.23;94618.53;4916731;29;20055;-92
2022/03/20 01:37:31;;;;;;;14.52;10.20;;;;;;;15.34;30.03;94620.03;4917831;29;20103;-91
2022/03/20 01:39:57;;;;;;;14.23;10.48;;;;;;;15.34;29.76;94617.31;4909714;29;20071;-91
2022/03/20 01:42:23;;;;;;;13.38;10.30;;;;;;;15.33;30.10;94621.25;4916771;29;20047;-91
2022/03/20 01:44:48;;;;;;;15.00;11.23;;;;;;;15.33;30.26;94632.16;4903603;29;20044;-91
2022/03/20 01:47:14;;;;;;;13.25;9.98;;;;;;;15.34;30.19;94605.66;4916060;29;20032;-91
2022/03/20 01:49:40;;;;;;;11.45;9.30;;;;;;;15.33;30.33;94610.34;4901078;29;20160;-91
2022/03/20 01:52:11;;;;;;;14.23;10.55;;;;;;;15.33;29.97;94612.31;4913035;29;20039;-92
2022/03/20 01:54:45;;;;;;;13.45;10.27;;;;;;;15.32;29.92;94611.56;4903143;29;20039;-92
2022/03/20 01:57:17;;;;;;;14.55;10.13;;;;;;;15.33;30.14;94618.53;4917322;28;20032;-92
2022/03/20 01:59:43;;;;;;;13.90;10.18;;;;;;;15.31;29.77;94603.84;4916789;29;20043;-92
2022/03/20 02:02:09;;;;;;;13.70;9.80;;;;;;;15.31;30.23;94609.31;4915526;28;20240;-92
2022/03/20 02:04:35;;;;;;;11.60;9.27;;;;;;;15.32;30.15;94610.81;4900689;29;20045;-93
2022/03/20 02:07:02;;;;;;;11.93;9.00;;;;;;;15.31;30.11;94584.78;4916176;29;20091;-92
2022/03/20 02:09:27;;;;;;;13.25;9.65;;;;;;;15.33;30.01;94610.34;4915961;29;20043;-92
2022/03/20 02:11:52;;;;;;;11.85;9.93;;;;;;;15.32;30.03;94589.78;4917321;29;20036;-92
2022/03/20 02:14:18;;;;;;;11.85;9.38;;;;;;;15.34;29.73;94603.69;4916487;29;20518;-92
2022/03/20 02:16:44;;;;;;;12.50;9.93;;;;;;;15.32;30.20;94597.19;4916193;29;20531;-92
2022/03/20 02:19:13;;;;;;;12.10;9.38;;;;;;;15.33;30.23;94593.25;4915469;29;20044;-91
2022/03/20 02:21:42;;;;;;;11.93;9.73;;;;;;;15.31;29.75;94601.88;4917038;29;20043;-92
2022/03/20 02:24:30;;;;;;;12.10;9.57;;;;;;;15.32;30.10;94592.50;4931546;29;20048;-91
2022/03/20 02:27:11;;;;;;;12.50;9.35;;;;;;;15.30;30.25;94611.28;4912991;29;20048;-93
2022/03/20 02:29:37;;;;;;;12.13;9.85;;;;;;;15.31;30.34;94601.13;4897062;29;20135;-91
2022/03/20 02:32:04;;;;;;;13.40;9.57;;;;;;;15.31;30.16;94601.13;4896711;29;20048;-91
2022/03/20 02:34:31;;;;;;;12.20;9.55;;;;;;;15.31;30.03;94593.72;4912965;29;20042;-91
2022/03/20 02:36:56;;;;;;;11.48;8.85;;;;;;;15.32;29.89;94595.22;4900354;29;20449;-91
2022/03/20 02:39:22;;;;;;;12.68;9.27;;;;;;;15.33;29.99;94579.63;4915396;29;20043;-90
2022/03/20 02:41:48;;;;;;;13.27;9.90;;;;;;;15.31;30.28;94574.63;4916494;29;20056;-90
2022/03/20 02:44:13;;;;;;;10.68;8.35;;;;;;;15.33;30.04;94587.81;4913011;29;20036;-91
2022/03/20 02:46:39;;;;;;;11.60;9.07;;;;;;;15.31;30.16;94588.25;4913959;29;20332;-92
2022/03/20 02:49:07;;;;;;;11.65;9.02;;;;;;;15.31;29.89;94603.84;4915371;29;20099;-93
2022/03/20 02:51:33;;;;;;;11.18;8.57;;;;;;;15.33;29.79;94598.69;4916139;29;20036;-92
2022/03/20 02:53:58;;;;;;;11.30;8.80;;;;;;;15.29;30.09;94587.22;4915822;29;20044;-91
2022/03/20 02:56:27;;;;;;;13.02;9.38;;;;;;;15.29;29.71;94611.72;4906667;29;20063;-91
2022/03/20 02:58:53;;;;;;;12.15;8.77;;;;;;;15.33;29.79;94598.69;4916396;29;20127;-90
2022/03/20 03:01:18;;;;;;;12.48;9.13;;;;;;;15.30;29.68;94596.91;4914942;29;20152;-92
2022/03/20 03:03:45;;;;;;;11.48;8.65;;;;;;;15.30;30.02;94592.19;4915850;29;20054;-91
2022/03/20 03:06:11;;;;;;;9.93;8.18;;;;;;;15.31;30.03;94604.59;4915715;29;20047;-92
2022/03/20 03:11:21;;;;;;;15.25;9.70;;;;;;;15.32;30.08;94603.38;4917481;29;20046;-91
2022/03/20 03:13:47;;;;;;;13.00;8.73;;;;;;;15.31;29.70;94607.34;4915086;29;20044;-92
2022/03/20 03:16:14;;;;;;;12.35;9.20;;;;;;;15.31;29.90;94606.56;4912596;29;20044;-91
2022/03/20 03:18:44;;;;;;;10.70;8.68;;;;;;;15.30;30.09;94608.53;4897214;29;20131;-90
2022/03/20 03:21:10;;;;;;;12.55;9.73;;;;;;;15.29;29.79;94601.59;4875651;29;20560;-92
2022/03/20 03:23:36;;;;;;;10.70;8.25;;;;;;;15.32;29.82;94608.09;4845894;29;20044;-92
2022/03/20 03:26:02;;;;;;;11.93;9.23;;;;;;;15.30;30.15;94608.53;4847141;29;20081;-91
2022/03/20 03:28:34;;;;;;;12.65;9.70;;;;;;;15.31;29.73;94612.03;4864930;29;20067;-91
2022/03/20 03:31:01;;;;;;;12.35;8.80;;;;;;;15.28;30.10;94608.25;4881605;29;20048;-91
2022/03/20 03:33:27;;;;;;;11.30;8.43;;;;;;;15.30;29.97;94614.00;4878807;29;20127;-92
2022/03/20 03:35:54;;;;;;;10.90;8.50;;;;;;;15.29;30.00;94615.22;4864148;29;20127;-91
2022/03/20 03:38:22;;;;;;;11.32;8.77;;;;;;;15.31;30.11;94614.75;4865056;29;20648;-91
2022/03/20 03:40:47;;;;;;;12.32;8.77;;;;;;;15.30;30.10;94614.00;4880373;29;20111;-91
2022/03/20 03:43:17;;;;;;;11.57;8.68;;;;;;;15.30;30.21;94619.44;4879956;29;20055;-93
2022/03/20 03:45:43;;;;;;;10.98;8.35;;;;;;;15.30;30.16;94633.06;4884155;29;20044;-92
2022/03/20 03:48:09;;;;;;;9.73;7.53;;;;;;;15.31;29.93;94631.09;4882425;29;20095;-91
2022/03/20 03:50:36;;;;;;;11.68;8.77;;;;;;;15.29;29.94;94631.56;4867030;29;20077;-92
2022/03/20 03:53:03;;;;;;;11.90;8.98;;;;;;;15.27;29.92;94614.91;4889716;29;20040;-92
2022/03/20 03:55:29;;;;;;;10.30;7.80;;;;;;;15.29;29.62;94615.22;4919346;29;20051;-91
2022/03/20 03:57:55;;;;;;;10.27;8.57;;;;;;;15.28;29.82;94610.97;4919244;29;20035;-91
2022/03/20 04:00:21;;;;;;;11.88;8.38;;;;;;;15.29;29.94;94609.75;4903291;29;20396;-92
2022/03/20 04:02:47;;;;;;;10.93;8.55;;;;;;;15.28;29.98;94621.88;4919703;29;20096;-91
2022/03/20 04:05:15;;;;;;;9.02;7.40;;;;;;;15.29;30.15;94614.44;4902756;29;20043;-92
2022/03/20 04:07:41;;;;;;;10.55;8.02;;;;;;;15.28;29.88;94621.88;4916639;29;20055;-92
2022/03/20 04:10:06;;;;;;;12.90;9.20;;;;;;;15.31;29.89;94634.56;4900071;29;20048;-91
2022/03/20 04:12:33;;;;;;;11.32;8.30;;;;;;;15.29;30.04;94620.66;4900562;29;20036;-92
2022/03/20 04:15:02;;;;;;;11.32;8.05;;;;;;;15.28;30.03;94635.50;4885680;29;20447;-92
2022/03/20 04:17:31;;;;;;;10.63;7.80;;;;;;;15.28;29.88;94632.75;4904180;28;20036;-92
2022/03/20 04:19:57;;;;;;;10.45;8.27;;;;;;;15.28;29.98;94621.13;4904166;29;20048;-91
2022/03/20 04:22:23;;;;;;;11.65;8.27;;;;;;;15.28;29.98;94621.13;4919096;28;20104;-91
2022/03/20 04:24:50;;;;;;;10.73;7.90;;;;;;;15.28;30.04;94632.00;4903002;29;20099;-91
2022/03/20 04:27:17;;;;;;;12.05;8.93;;;;;;;15.29;30.05;94617.94;4918174;28;20035;-91
2022/03/20 04:29:42;;;;;;;11.77;8.10;;;;;;;15.30;29.78;94622.16;4919552;29;20068;-92
2022/03/20 04:32:08;;;;;;;11.75;8.57;;;;;;;15.29;29.98;94622.63;4918798;28;20043;-92
2022/03/20 04:34:35;;;;;;;12.32;7.78;;;;;;;15.27;30.05;94614.91;4918854;29;20047;-91
2022/03/20 04:37:04;;;;;;;10.18;7.90;;;;;;;15.28;30.08;94621.13;4919163;29;20538;-90
2022/03/20 04:39:30;;;;;;;11.05;8.63;;;;;;;15.28;29.95;94621.88;4913380;29;20068;-92
2022/03/20 04:41:55;;;;;;;10.73;8.00;;;;;;;15.30;29.77;94632.31;4918339;29;20036;-92
2022/03/20 04:44:21;;;;;;;12.70;8.75;;;;;;;15.28;29.83;94615.66;4915390;29;20044;-92
2022/03/20 04:46:47;;;;;;;9.90;7.53;;;;;;;15.27;29.78;94628.53;4900013;29;20071;-91
2022/03/20 05:00:10;;;;;;;10.43;7.82;;;;;;;15.27;29.58;94628.53;4914738;29;20047;-91
2022/03/20 05:02:35;;;;;;;10.80;8.30;;;;;;;15.28;30.01;94642.91;4883619;29;20397;-91
2022/03/20 05:05:00;;;;;;;9.57;7.55;;;;;;;15.26;29.96;94640.63;4884217;29;20053;-92
2022/03/20 05:07:26;;;;;;;9.93;7.47;;;;;;;15.27;29.70;94639.44;4898995;29;20032;-91
2022/03/20 05:15:19;;;;;;;11.63;8.20;;;;;;;15.27;29.72;94644.88;4920109;29;20051;-92
2022/03/20 05:17:45;;;;;;;11.23;8.35;;;;;;;15.27;29.82;94644.88;4918227;29;20047;-91
2022/03/20 05:20:11;;;;;;;8.32;6.85;;;;;;;15.27;29.84;94647.59;4916906;29;20062;-91
2022/03/20 05:22:39;;;;;;;10.27;7.43;;;;;;;15.26;29.63;94664.41;4918605;29;20507;-92
2022/03/20 05:25:08;;;;;;;10.05;7.45;;;;;;;15.28;29.63;94651.84;4917709;29;20054;-90
2022/03/20 05:27:33;;;;;;;11.43;8.02;;;;;;;15.27;29.73;94650.31;4919207;29;20050;-92
2022/03/20 05:29:59;;;;;;;10.38;8.02;;;;;;;15.28;29.88;94653.81;4917985;29;20036;-92
2022/03/20 05:32:24;;;;;;;10.10;7.95;;;;;;;15.27;29.59;94657.75;4913867;29;20036;-91
2022/03/20 05:34:50;;;;;;;10.98;8.20;;;;;;;15.27;29.43;94661.22;4899211;29;20061;-91
2022/03/20 05:37:15;;;;;;;8.60;7.20;;;;;;;15.29;29.97;94642.44;4898417;29;20087;-91
2022/03/20 05:39:41;;;;;;;9.55;8.10;;;;;;;15.27;29.50;94657.75;4907184;29;20087;-91
2022/03/20 05:42:06;;;;;;;9.80;7.70;;;;;;;15.29;29.97;94642.44;4917643;29;20099;-91
2022/03/20 05:44:33;;;;;;;11.02;8.13;;;;;;;15.30;29.94;94665.00;4915135;29;20040;-92
2022/03/20 05:46:59;;;;;;;11.25;7.55;;;;;;;15.28;29.58;94660.00;4918222;29;20062;-90
2022/03/20 05:49:25;;;;;;;9.60;7.57;;;;;;;15.30;29.85;94665.00;4917559;29;20036;-92
2022/03/20 05:51:51;;;;;;;9.85;8.30;;;;;;;15.31;29.69;94669.22;4917935;29;20044;-91
2022/03/20 05:54:16;;;;;;;10.00;7.95;;;;;;;15.32;29.34;94657.88;4901126;29;20067;-91
2022/03/20 05:59:26;;;;;;;11.98;7.65;;;;;;;15.32;29.76;94668.78;4919820;29;20050;-90
2022/03/20 06:01:53;;;;;;;10.68;8.32;;;;;;;15.32;29.77;94678.91;4917063;29;20071;-92
2022/03/20 06:04:19;;;;;;;11.88;8.82;;;;;;;15.33;29.33;94667.56;4916104;29;20051;-91
2022/03/20 06:06:45;;;;;;;9.60;7.38;;;;;;;15.35;29.87;94680.72;4917863;29;20507;-91
2022/03/20 06:09:10;;;;;;;10.70;8.23;;;;;;;15.37;29.51;94673.59;4917186;29;20051;-91
2022/03/20 06:11:36;;;;;;;10.43;7.75;;;;;;;15.38;29.71;94671.59;4917606;29;20036;-91
2022/03/20 06:14:02;;;;;;;9.25;7.88;;;;;;;15.39;29.35;94679.31;4917657;29;20039;-92
2022/03/20 06:16:28;;;;;;;9.95;7.72;;;;;;;15.40;29.53;94680.09;4918017;29;20032;-92
2022/03/20 06:18:56;;;;;;;11.88;8.02;;;;;;;15.40;29.74;94685.53;4917307;29;20372;-91
2022/03/20 06:21:22;;;;;;;10.77;7.40;;;;;;;15.46;29.74;94691.88;4917058;29;20048;-91
2022/03/20 06:23:48;;;;;;;10.50;7.65;;;;;;;15.42;29.67;94686.59;4918223;29;20048;-91
2022/03/20 06:26:14;;;;;;;9.93;8.23;;;;;;;15.46;29.79;94691.88;4917035;29;20043;-92
2022/03/20 06:28:41;;;;;;;10.50;7.25;;;;;;;15.48;29.88;94696.88;4918032;29;20099;-91
2022/03/20 06:31:10;;;;;;;10.00;7.60;;;;;;;15.50;29.60;94703.38;4916796;29;20043;-92
2022/03/20 06:33:37;;;;;;;9.40;6.90;;;;;;;15.54;29.69;94698.50;4917702;29;20039;-91
2022/03/20 06:36:03;;;;;;;9.48;7.30;;;;;;;15.50;29.63;94691.72;4916592;29;20085;-90
2022/03/20 06:38:30;;;;;;;10.65;8.02;;;;;;;15.51;29.82;94699.44;4917282;29;20036;-91
2022/03/20 06:40:56;;;;;;;9.82;7.15;;;;;;;15.54;29.94;94692.31;4913243;29;20040;-90
2022/03/20 06:43:21;;;;;;;9.70;7.93;;;;;;;15.54;29.68;94693.06;4902307;29;20059;-91
2022/03/20 06:45:46;;;;;;;9.90;7.05;;;;;;;15.53;29.91;94699.72;4916481;29;20035;-91
2022/03/20 06:48:13;;;;;;;8.48;6.70;;;;;;;15.60;29.64;94709.56;4915759;29;20043;-91
2022/03/20 06:50:38;;;;;;;8.82;6.57;;;;;;;15.58;29.96;94707.31;4915778;29;20558;-91
2022/03/20 06:53:04;;;;;;;8.85;6.82;;;;;;;15.63;29.48;94700.47;4915090;29;20040;-92
2022/03/20 06:55:31;;;;;;;8.68;6.85;;;;;;;15.62;29.77;94724.22;4931913;29;20044;-92
2022/03/20 06:57:57;;;;;;;9.38;7.70;;;;;;;15.63;29.65;94720.28;4931909;29;20571;-91
2022/03/20 07:00:23;;;;;;;10.50;7.43;;;;;;;15.63;29.57;94708.63;4931234;29;20056;-91
2022/03/20 07:02:48;;;;;;;8.20;6.72;;;;;;;15.64;29.72;94715.59;4931572;29;20032;-91
2022/03/20 07:05:14;;;;;;;8.88;6.97;;;;;;;15.67;29.71;94718.16;4915401;28;20032;-92
2022/03/20 07:07:40;;;;;;;9.40;7.55;;;;;;;15.65;29.74;94726.03;4915116;29;20683;-91
2022/03/20 07:10:06;;;;;;;9.95;7.53;;;;;;;15.71;29.72;94728.91;4916076;28;20047;-92
2022/03/20 07:12:31;;;;;;;9.35;7.57;;;;;;;15.72;29.45;94714.81;4915380;29;20040;-91
2022/03/20 07:14:57;;;;;;;7.85;6.38;;;;;;;15.74;29.93;94734.19;4931303;29;20035;-93
2022/03/20 07:17:22;;;;;;;8.73;7.05;;;;;;;15.74;29.46;94728.75;4914792;28;20039;-91
2022/03/20 07:19:48;;;;;;;8.15;6.38;;;;;;;15.77;29.75;94727.81;4915750;29;20044;-91
2022/03/20 07:22:14;;;;;;;8.43;6.93;;;;;;;15.78;29.43;94747.66;4897444;29;20036;-91
2022/03/20 07:24:41;;;;;;;8.90;6.57;;;;;;;15.80;29.81;94731.59;4883248;29;20423;-92
2022/03/20 07:29:51;;;;;;;8.85;6.47;;;;;;;15.81;29.87;94738.53;4903297;29;20698;-91
2022/03/20 07:32:16;;;;;;;8.75;6.72;;;;;;;15.82;29.75;94740.03;4885975;29;20036;-91
2022/03/20 07:34:44;;;;;;;9.45;7.40;;;;;;;15.82;29.29;94745.50;4882823;29;20055;-92
2022/03/20 07:37:09;;;;;;;8.75;6.22;;;;;;;15.84;29.47;94740.34;4882568;29;20329;-91
2022/03/20 07:39:35;;;;;;;8.93;6.43;;;;;;;15.87;29.55;94735.94;4882600;29;20067;-91
2022/03/20 07:42:00;;;;;;;7.95;6.25;;;;;;;15.85;29.80;94744.59;4897774;29;20225;-92
2022/03/20 07:44:26;;;;;;;9.00;6.65;;;;;;;15.87;29.61;94755.03;4897888;29;20048;-91
2022/03/20 07:46:54;;;;;;;9.82;6.53;;;;;;;15.87;29.90;94744.13;4865263;29;20060;-92
2022/03/20 07:49:20;;;;;;;10.80;7.63;;;;;;;15.89;29.32;94730.78;4879287;29;20184;-91
2022/03/20 07:51:46;;;;;;;9.50;6.75;;;;;;;15.87;29.49;94736.69;4880584;29;20048;-91
2022/03/20 07:54:12;;;;;;;7.38;6.20;;;;;;;15.86;29.56;94740.63;4912437;29;20048;-91
2022/03/20 07:56:37;;;;;;;9.27;7.43;;;;;;;15.90;29.06;94759.56;4914792;29;20044;-90
2022/03/20 07:59:06;;;;;;;10.65;7.65;;;;;;;15.87;29.56;94739.41;4914582;29;20047;-91
2022/03/20 08:01:35;;;;;;;11.50;7.38;;;;;;;15.86;29.19;94746.09;4915634;29;20040;-91
2022/03/20 08:04:00;;;;;;;10.32;7.60;;;;;;;15.85;29.11;94743.81;4915438;29;20542;-92
2022/03/20 08:06:27;;;;;;;11.27;7.68;;;;;;;15.88;29.16;94742.91;4913990;29;20036;-92
2022/03/20 08:08:52;;;;;;;9.15;7.15;;;;;;;15.89;29.23;94739.72;4915268;29;20276;-91
2022/03/20 08:11:18;;;;;;;8.43;6.88;;;;;;;15.90;29.51;94748.66;4914848;28;20217;-91
2022/03/20 08:13:44;;;;;;;10.52;7.38;;;;;;;15.88;29.45;94738.22;4911872;29;20044;-92
2022/03/20 08:16:12;;;;;;;9.75;7.20;;;;;;;15.90;28.92;94748.66;4895373;29;20096;-92
2022/03/20 08:18:37;;;;;;;9.38;7.00;;;;;;;15.90;29.42;94743.97;4881088;29;20068;-92
2022/03/20 08:21:05;;;;;;;10.13;7.30;;;;;;;15.89;29.03;94753.34;4880181;29;20475;-91
2022/03/20 08:23:30;;;;;;;11.70;7.72;;;;;;;15.89;29.09;94749.88;4905465;29;20403;-92
2022/03/20 08:25:56;;;;;;;10.93;8.10;;;;;;;15.89;29.23;94749.88;4915338;29;20071;-92
2022/03/20 08:28:21;;;;;;;11.07;8.35;;;;;;;15.88;29.08;94749.13;4917507;29;21075;-90
2022/03/20 08:30:46;;;;;;;8.90;6.78;;;;;;;15.93;29.19;94753.19;4918442;29;20407;-91
2022/03/20 08:33:15;;;;;;;8.98;7.22;;;;;;;15.92;29.25;94754.41;4914023;29;20064;-92
2022/03/20 08:35:40;;;;;;;9.55;7.22;;;;;;;15.91;29.28;94753.66;4899569;29;20132;-93
2022/03/20 08:38:06;;;;;;;10.40;7.75;;;;;;;15.91;29.02;94745.47;4883074;29;20045;-91
2022/03/20 08:40:33;;;;;;;10.73;7.50;;;;;;;15.95;29.03;94740.59;4914991;29;20048;-91
2022/03/20 08:42:59;;;;;;;9.30;7.45;;;;;;;15.90;29.20;94752.13;4918258;29;20122;-92
2022/03/20 08:45:29;;;;;;;9.68;7.25;;;;;;;15.89;29.03;94744.41;4898147;29;20071;-91
2022/03/20 08:47:54;;;;;;;9.73;7.30;;;;;;;15.90;29.05;94757.59;4914962;29;20037;-92
2022/03/20 08:50:20;;;;;;;9.75;7.65;;;;;;;15.92;28.89;94762.59;4913761;29;20051;-91
2022/03/20 08:52:46;;;;;;;9.43;7.20;;;;;;;15.92;29.04;94759.84;4898617;29;20055;-91
2022/03/20 08:55:12;;;;;;;9.02;7.22;;;;;;;15.92;29.07;94757.13;4916533;29;20537;-91
2022/03/20 08:57:39;;;;;;;10.77;8.05;;;;;;;15.91;28.87;94744.72;4917563;29;20079;-92
2022/03/20 09:00:06;;;;;;;9.88;7.50;;;;;;;15.90;28.89;94760.31;4916948;29;20047;-91
2022/03/20 09:02:31;;;;;;;8.85;7.63;;;;;;;15.92;28.96;94752.44;4917238;29;20046;-92
2022/03/20 09:04:57;;;;;;;9.52;7.60;;;;;;;15.91;29.14;94758.34;4901375;29;20035;-91
2022/03/20 09:07:22;;;;;;;8.57;7.50;;;;;;;15.89;29.15;94761.53;4916139;29;20047;-92
2022/03/20 09:09:47;;;;;;;10.10;6.97;;;;;;;15.92;28.88;94762.59;4917514;29;20040;-93
2022/03/20 09:12:13;;;;;;;10.25;7.28;;;;;;;15.90;29.13;94756.84;4916807;29;20518;-91
2022/03/20 09:14:39;;;;;;;8.43;6.93;;;;;;;15.91;28.86;94752.91;4917390;29;20048;-91
2022/03/20 09:19:48;;;;;;;9.68;7.43;;;;;;;15.90;28.86;94759.56;4919968;29;20095;-92
2022/03/20 09:22:16;;;;;;;9.38;7.30;;;;;;;15.90;29.09;94757.59;4916215;29;20328;-90
2022/03/20 09:24:41;;;;;;;11.98;7.50;;;;;;;15.88;28.93;94757.28;4905175;29;20054;-91
2022/03/20 09:27:07;;;;;;;10.55;7.43;;;;;;;15.89;28.73;94747.91;4900798;29;20039;-91
2022/03/20 09:29:32;;;;;;;12.95;8.20;;;;;;;15.90;28.86;94760.31;4916735;29;20050;-90
2022/03/20 09:31:58;;;;;;;8.75;6.75;;;;;;;15.93;28.97;94758.66;4916732;29;20047;-91
2022/03/20 09:34:23;;;;;;;8.60;6.90;;;;;;;15.91;28.98;94755.63;4916143;29;20114;-90
2022/03/20 09:36:48;;;;;;;9.23;7.28;;;;;;;15.91;29.15;94766.53;4916757;29;20044;-92
2022/03/20 09:39:14;;;;;;;8.88;7.43;;;;;;;15.91;29.07;94758.34;4912861;29;20043;-91
2022/03/20 09:41:42;;;;;;;10.35;7.57;;;;;;;15.91;28.81;94763.81;4897477;29;20032;-90
2022/03/20 09:44:08;;;;;;;9.38;7.15;;;;;;;15.90;29.01;94765.03;4904846;29;20062;-91
2022/03/20 09:46:34;;;;;;;9.07;7.00;;;;;;;15.93;28.88;94778.50;4915966;29;20463;-91
2022/03/20 09:49:00;;;;;;;11.48;7.25;;;;;;;15.89;29.03;94777.91;4916481;29;20073;-90
2022/03/20 09:51:26;;;;;;;9.55;7.63;;;;;;;15.89;28.63;94767.00;4899558;29;20535;-91
2022/03/20 09:53:51;;;;;;;9.48;6.90;;;;;;;15.91;29.07;94774.72;4916029;29;20055;-90
2022/03/20 09:56:17;;;;;;;8.95;7.18;;;;;;;15.90;29.02;94776.69;4916247;28;20075;-93
2022/03/20 09:58:42;;;;;;;9.30;7.15;;;;;;;15.91;28.93;94772.75;4900416;29;20036;-91
2022/03/20 10:01:08;;;;;;;10.52;7.40;;;;;;;15.91;28.75;94758.34;4931046;28;20040;-91
2022/03/20 10:03:33;;;;;;;9.68;7.75;;;;;;;15.90;29.27;94760.31;4912883;29;20113;-92
2022/03/20 10:06:16;;;;;;;10.80;7.45;;;;;;;15.90;28.44;94756.84;4881810;29;20097;-91
2022/03/20 10:09:02;;;;;;;9.30;6.72;;;;;;;15.91;28.85;94763.81;4898635;29;20408;-90
2022/03/20 10:11:27;;;;;;;9.52;7.28;;;;;;;15.90;28.76;94765.78;4881459;29;20043;-89
2022/03/20 10:14:19;;;;;;;9.27;6.95;;;;;;;15.90;28.70;94767.75;4896374;29;20032;-90
2022/03/20 10:16:50;;;;;;;;;;;;;;;15.94;28.98;94787.44;4883283;29;20063;-90
2022/03/20 10:19:26;;;;;;;10.10;7.32;;;;;;;15.89;28.99;94755.31;4911643;29;19919;-91
2022/03/20 10:21:56;;;;;;;9.93;7.10;;;;;;;15.88;28.99;94765.47;4881343;29;20051;-91
2022/03/20 10:24:23;;;;;;;8.93;6.75;;;;;;;15.88;28.49;94762.75;4881422;29;20044;-91
2022/03/20 10:27:03;;;;;;;10.57;7.70;;;;;;;15.90;28.51;94759.56;4880793;29;20166;-91
2022/03/20 10:29:29;;;;;;;9.85;7.45;;;;;;;15.88;28.53;94762.75;4897477;29;20043;-90
2022/03/20 10:31:56;;;;;;;8.75;7.05;;;;;;;15.88;28.80;94764.72;4896448;29;20060;-93
2022/03/20 10:34:23;;;;;;;11.05;6.97;;;;;;;15.88;28.68;94767.44;4880238;29;20044;-91
2022/03/20 10:36:49;;;;;;;9.50;7.72;;;;;;;15.89;28.94;94764.25;4897284;29;20040;-91
2022/03/20 10:39:16;;;;;;;9.05;7.13;;;;;;;15.89;28.83;94760.78;4880160;29;20078;-91
2022/03/20 10:41:43;;;;;;;10.80;8.25;;;;;;;15.89;28.77;94771.69;4881530;29;20076;-91
2022/03/20 10:44:15;;;;;;;7.90;6.97;;;;;;;15.88;28.60;94756.53;4888593;29;20040;-92
2022/03/20 10:46:41;;;;;;;9.25;7.35;;;;;;;15.89;28.54;94783.34;4923166;29;20051;-92
2022/03/20 10:49:06;;;;;;;9.77;7.13;;;;;;;15.89;28.63;94756.09;4913864;29;20469;-91
2022/03/20 10:51:38;;;;;;;9.13;7.32;;;;;;;15.91;28.48;94777.44;4914873;29;20035;-91
2022/03/20 10:54:11;;;;;;;9.30;7.10;;;;;;;15.90;28.76;94765.78;4914575;29;20098;-92
2022/03/20 10:56:37;;;;;;;9.05;7.10;;;;;;;15.89;28.30;94780.63;4916131;29;20024;-91
2022/03/20 10:59:13;;;;;;;9.23;7.13;;;;;;;15.89;28.47;94796.97;4914598;28;20404;-91
2022/03/20 11:01:39;;;;;;;9.80;7.82;;;;;;;15.89;28.18;94783.34;4899480;29;20046;-91
2022/03/20 11:04:05;;;;;;;8.40;7.10;;;;;;;15.87;28.55;94755.03;4914746;28;20040;-92
2022/03/20 11:06:31;;;;;;;8.80;6.90;;;;;;;15.89;28.31;94798.97;4911980;29;20439;-90
2022/03/20 11:08:56;;;;;;;7.88;6.72;;;;;;;15.90;28.83;94767.75;4880282;29;20040;-92
2022/03/20 11:11:23;;;;;;;8.98;7.43;;;;;;;15.88;28.24;94768.22;4879921;29;20087;-91
2022/03/20 11:13:48;;;;;;;7.65;6.85;;;;;;;15.88;28.22;94792.75;4896507;29;20115;-92
2022/03/20 11:16:14;;;;;;;10.25;7.15;;;;;;;15.90;28.21;94767.75;4897853;28;20483;-90
2022/03/20 11:18:39;;;;;;;9.88;7.03;;;;;;;15.87;28.42;94763.22;4911459;29;20056;-90
2022/03/20 11:21:05;;;;;;;8.18;6.43;;;;;;;15.87;28.40;94761.25;4895155;29;20040;-91
2022/03/20 11:23:30;;;;;;;8.07;6.63;;;;;;;15.88;28.21;94770.19;4880462;29;20115;-90
2022/03/20 11:25:56;;;;;;;8.80;6.65;;;;;;;15.88;28.36;94767.44;4895951;29;20048;-91
2022/03/20 11:28:21;;;;;;;7.85;6.40;;;;;;;15.87;28.45;94758.50;4911997;29;20056;-91
2022/03/20 11:30:47;;;;;;;10.02;6.97;;;;;;;15.86;28.15;94767.91;4914738;29;20044;-92
2022/03/20 11:33:12;;;;;;;9.05;6.40;;;;;;;15.88;28.15;94765.47;4914284;29;20047;-90
2022/03/20 11:35:38;;;;;;;9.25;6.78;;;;;;;15.88;28.40;94773.66;4915120;29;20262;-91
2022/03/20 11:38:19;;;;;;;8.18;6.65;;;;;;;15.87;27.97;94739.41;4913702;29;20075;-91
2022/03/20 11:41:03;;;;;;;;;;;;;;;15.90;28.21;94738.50;4927158;29;20041;-90
2022/03/20 11:43:28;;;;;;;8.25;6.63;;;;;;;15.86;28.05;94737.91;4917045;29;19923;-90
2022/03/20 11:46:14;;;;;;;9.18;6.65;;;;;;;15.87;28.61;94744.13;4914530;29;20040;-91
2022/03/20 11:48:39;;;;;;;9.20;7.38;;;;;;;15.88;28.09;94753.81;4914389;29;20139;-91
2022/03/20 11:51:05;;;;;;;10.23;7.00;;;;;;;15.87;28.16;94763.22;4913722;29;20526;-91
2022/03/20 11:53:36;;;;;;;8.43;6.35;;;;;;;15.88;28.28;94742.91;4914550;29;20385;-90